sensor_id;sensor_type;location;lat;lon;timestamp;pressure;altitude;pressure_sealevel;temperature;humidity
19845;BME280;10083;51.038;7.012;2022-07-22T00:00:45;100244.38;;;20.16;100.00
19845;BME280;10083;51.038;7.012;2022-07-22T00:03:24;100256.59;;;20.23;100.00
19845;BME280;10083;51.038;7.012;2022-07-22T00:05:51;100256.88;;;19.93;100.00
19845;BME280;10083;51.038;7.012;2022-07-22T00:08:18;100271.78;;;19.88;100.00
19845;BME280;10083;51.038;7.012;2022-07-22T00:10:45;100282.53;;;19.89;100.00
19845;BME280;10083;51.038;7.012;2022-07-22T00:13:12;100299.19;;;19.97;100.00
19845;BME280;10083;51.038;7.012;2022-07-22T00:15:40;100307.56;;;19.94;100.00
19845;BME280;10083;51.038;7.012;2022-07-22T00:18:14;100319.22;;;19.96;100.00
19845;BME280;10083;51.038;7.012;2022-07-22T00:20:41;100334.97;;;19.91;100.00
19845;BME280;10083;51.038;7.012;2022-07-22T00:23:14;100344.56;;;19.97;100.00
19845;BME280;10083;51.038;7.012;2022-07-22T00:25:41;100353.22;;;19.89;100.00
19845;BME280;10083;51.038;7.012;2022-07-22T00:28:08;100382.19;;;20.03;100.00
19845;BME280;10083;51.038;7.012;2022-07-22T00:30:35;100376.75;;;19.76;100.00
19845;BME280;10083;51.038;7.012;2022-07-22T00:33:06;100406.66;;;19.76;100.00
19845;BME280;10083;51.038;7.012;2022-07-22T00:35:33;100433.78;;;19.90;100.00
19845;BME280;10083;51.038;7.012;2022-07-22T00:38:03;100433.50;;;19.54;100.00
19845;BME280;10083;51.038;7.012;2022-07-22T00:40:49;100476.53;;;19.88;100.00
19845;BME280;10083;51.038;7.012;2022-07-22T00:43:16;100506.66;;;19.71;100.00
19845;BME280;10083;51.038;7.012;2022-07-22T00:45:43;100530.50;;;19.80;100.00
19845;BME280;10083;51.038;7.012;2022-07-22T00:48:12;100554.06;;;19.94;100.00
19845;BME280;10083;51.038;7.012;2022-07-22T00:50:40;100574.09;;;19.93;100.00
19845;BME280;10083;51.038;7.012;2022-07-22T00:53:08;100579.41;;;19.80;100.00
19845;BME280;10083;51.038;7.012;2022-07-22T00:55:36;100597.28;;;19.84;100.00
19845;BME280;10083;51.038;7.012;2022-07-22T00:58:05;100605.63;;;19.81;100.00
19845;BME280;10083;51.038;7.012;2022-07-22T01:00:32;100631.94;;;19.80;100.00
19845;BME280;10083;51.038;7.012;2022-07-22T01:03:03;100649.63;;;19.88;100.00
19845;BME280;10083;51.038;7.012;2022-07-22T01:05:31;100673.09;;;19.88;100.00
19845;BME280;10083;51.038;7.012;2022-07-22T01:08:04;100676.31;;;19.81;100.00
19845;BME280;10083;51.038;7.012;2022-07-22T01:10:32;100712.44;;;19.83;100.00
19845;BME280;10083;51.038;7.012;2022-07-22T01:13:00;100743.78;;;19.88;100.00
19845;BME280;10083;51.038;7.012;2022-07-22T01:15:29;100739.88;;;19.64;100.00
19845;BME280;10083;51.038;7.012;2022-07-22T01:17:56;100778.84;;;19.79;100.00
19845;BME280;10083;51.038;7.012;2022-07-22T01:20:27;100790.28;;;19.84;100.00
19845;BME280;10083;51.038;7.012;2022-07-22T01:22:54;100806.44;;;19.71;100.00
19845;BME280;10083;51.038;7.012;2022-07-22T01:25:23;100822.03;;;19.83;100.00
19845;BME280;10083;51.038;7.012;2022-07-22T01:27:50;100831.72;;;19.73;100.00
19845;BME280;10083;51.038;7.012;2022-07-22T01:30:17;100847.69;;;19.64;100.00
19845;BME280;10083;51.038;7.012;2022-07-22T01:32:44;100868.13;;;19.55;100.00
19845;BME280;10083;51.038;7.012;2022-07-22T01:35:32;100870.31;;;19.64;100.00
19845;BME280;10083;51.038;7.012;2022-07-22T01:37:59;100904.41;;;19.70;100.00
19845;BME280;10083;51.038;7.012;2022-07-22T01:40:27;100921.25;;;19.61;100.00
19845;BME280;10083;51.038;7.012;2022-07-22T01:42:55;100935.84;;;19.58;100.00
19845;BME280;10083;51.038;7.012;2022-07-22T01:45:23;100971.53;;;19.68;100.00
19845;BME280;10083;51.038;7.012;2022-07-22T01:47:50;100974.25;;;19.68;100.00
19845;BME280;10083;51.038;7.012;2022-07-22T01:50:17;101001.09;;;19.74;100.00
19845;BME280;10083;51.038;7.012;2022-07-22T01:52:46;101007.75;;;19.68;100.00
19845;BME280;10083;51.038;7.012;2022-07-22T01:55:15;101028.44;;;19.55;100.00
19845;BME280;10083;51.038;7.012;2022-07-22T01:57:43;101050.53;;;19.65;100.00
19845;BME280;10083;51.038;7.012;2022-07-22T02:00:24;101069.81;;;19.76;100.00
19845;BME280;10083;51.038;7.012;2022-07-22T02:02:52;101095.72;;;19.83;100.00
19845;BME280;10083;51.038;7.012;2022-07-22T02:05:19;101104.28;;;19.75;100.00
19845;BME280;10083;51.038;7.012;2022-07-22T02:07:59;101096.56;;;19.68;100.00
19845;BME280;10083;51.038;7.012;2022-07-22T02:10:28;101117.34;;;19.69;100.00
19845;BME280;10083;51.038;7.012;2022-07-22T02:12:55;101156.66;;;19.79;100.00
19845;BME280;10083;51.038;7.012;2022-07-22T02:15:25;101173.66;;;19.82;100.00
19845;BME280;10083;51.038;7.012;2022-07-22T02:17:56;101190.22;;;19.78;100.00
19845;BME280;10083;51.038;7.012;2022-07-22T02:20:37;101208.31;;;19.79;100.00
19845;BME280;10083;51.038;7.012;2022-07-22T02:23:06;101225.09;;;19.70;100.00
19845;BME280;10083;51.038;7.012;2022-07-22T02:25:41;101233.50;;;19.65;100.00
19845;BME280;10083;51.038;7.012;2022-07-22T02:28:10;101265.53;;;19.76;100.00
19845;BME280;10083;51.038;7.012;2022-07-22T02:30:37;101274.09;;;19.68;100.00
19845;BME280;10083;51.038;7.012;2022-07-22T02:33:05;101286.97;;;19.65;100.00
19845;BME280;10083;51.038;7.012;2022-07-22T02:35:47;101294.97;;;19.68;100.00
19845;BME280;10083;51.038;7.012;2022-07-22T02:38:15;101332.88;;;19.71;100.00
19845;BME280;10083;51.038;7.012;2022-07-22T02:40:59;101329.16;;;19.72;100.00
19845;BME280;10083;51.038;7.012;2022-07-22T02:43:26;101357.00;;;19.77;100.00
19845;BME280;10083;51.038;7.012;2022-07-22T02:45:57;101360.59;;;19.77;100.00
19845;BME280;10083;51.038;7.012;2022-07-22T02:48:24;101367.47;;;19.67;100.00
19845;BME280;10083;51.038;7.012;2022-07-22T02:50:52;101389.13;;;19.69;100.00
19845;BME280;10083;51.038;7.012;2022-07-22T02:53:25;101407.69;;;19.78;100.00
19845;BME280;10083;51.038;7.012;2022-07-22T02:55:52;101413.53;;;19.70;100.00
19845;BME280;10083;51.038;7.012;2022-07-22T02:58:19;101438.56;;;19.77;100.00
19845;BME280;10083;51.038;7.012;2022-07-22T03:00:46;101439.78;;;19.53;100.00
19845;BME280;10083;51.038;7.012;2022-07-22T03:03:13;101460.88;;;19.48;100.00
19845;BME280;10083;51.038;7.012;2022-07-22T03:05:46;101481.56;;;19.50;100.00
19845;BME280;10083;51.038;7.012;2022-07-22T03:08:21;101488.53;;;19.56;100.00
19845;BME280;10083;51.038;7.012;2022-07-22T03:11:03;101501.53;;;19.68;100.00
19845;BME280;10083;51.038;7.012;2022-07-22T03:13:31;101524.44;;;19.62;100.00
19845;BME280;10083;51.038;7.012;2022-07-22T03:16:07;101527.25;;;19.61;100.00
19845;BME280;10083;51.038;7.012;2022-07-22T03:18:35;101548.69;;;19.67;100.00
19845;BME280;10083;51.038;7.012;2022-07-22T03:21:09;101555.59;;;19.74;100.00
19845;BME280;10083;51.038;7.012;2022-07-22T03:23:37;101567.81;;;19.65;100.00
19845;BME280;10083;51.038;7.012;2022-07-22T03:26:11;101575.22;;;19.62;100.00
19845;BME280;10083;51.038;7.012;2022-07-22T03:28:38;101589.53;;;19.65;100.00
19845;BME280;10083;51.038;7.012;2022-07-22T03:31:13;101588.44;;;19.69;100.00
19845;BME280;10083;51.038;7.012;2022-07-22T03:33:45;101599.09;;;19.74;100.00
19845;BME280;10083;51.038;7.012;2022-07-22T03:36:15;101572.78;;;19.56;100.00
19845;BME280;10083;51.038;7.012;2022-07-22T03:38:45;101590.56;;;19.44;100.00
19845;BME280;10083;51.038;7.012;2022-07-22T03:41:18;101606.84;;;19.63;100.00
19845;BME280;10083;51.038;7.012;2022-07-22T03:43:45;101624.47;;;19.54;100.00
19845;BME280;10083;51.038;7.012;2022-07-22T03:46:25;101627.28;;;19.32;100.00
19845;BME280;10083;51.038;7.012;2022-07-22T03:48:52;101653.44;;;19.35;100.00
19845;BME280;10083;51.038;7.012;2022-07-22T03:51:20;101666.81;;;19.39;100.00
19845;BME280;10083;51.038;7.012;2022-07-22T03:53:50;101666.59;;;19.24;100.00
19845;BME280;10083;51.038;7.012;2022-07-22T03:56:20;101680.06;;;19.27;100.00
19845;BME280;10083;51.038;7.012;2022-07-22T03:58:49;101697.00;;;19.32;100.00
19845;BME280;10083;51.038;7.012;2022-07-22T04:01:19;101708.72;;;19.34;100.00
19845;BME280;10083;51.038;7.012;2022-07-22T04:03:47;101704.56;;;19.25;100.00
19845;BME280;10083;51.038;7.012;2022-07-22T04:06:26;101686.31;;;19.09;100.00
19845;BME280;10083;51.038;7.012;2022-07-22T04:09:01;101720.94;;;19.24;100.00
19845;BME280;10083;51.038;7.012;2022-07-22T04:11:40;101723.72;;;19.22;100.00
19845;BME280;10083;51.038;7.012;2022-07-22T04:14:15;101727.13;;;19.27;100.00
19845;BME280;10083;51.038;7.012;2022-07-22T04:16:44;101741.47;;;19.31;100.00
19845;BME280;10083;51.038;7.012;2022-07-22T04:19:19;101742.19;;;19.14;100.00
19845;BME280;10083;51.038;7.012;2022-07-22T04:22:00;101743.88;;;19.17;100.00
19845;BME280;10083;51.038;7.012;2022-07-22T04:24:29;101760.91;;;19.20;100.00
19845;BME280;10083;51.038;7.012;2022-07-22T04:27:00;101762.47;;;19.06;100.00
19845;BME280;10083;51.038;7.012;2022-07-22T04:29:36;101767.25;;;19.21;100.00
19845;BME280;10083;51.038;7.012;2022-07-22T04:32:04;101783.34;;;19.25;100.00
19845;BME280;10083;51.038;7.012;2022-07-22T04:34:33;101782.22;;;19.31;100.00
19845;BME280;10083;51.038;7.012;2022-07-22T04:37:01;101783.47;;;19.22;100.00
19845;BME280;10083;51.038;7.012;2022-07-22T04:39:35;101776.97;;;19.26;100.00
19845;BME280;10083;51.038;7.012;2022-07-22T04:42:04;101771.28;;;19.11;100.00
19845;BME280;10083;51.038;7.012;2022-07-22T04:44:40;101775.84;;;19.10;100.00
19845;BME280;10083;51.038;7.012;2022-07-22T04:47:10;101782.78;;;19.17;100.00
19845;BME280;10083;51.038;7.012;2022-07-22T04:49:45;101771.94;;;19.17;100.00
19845;BME280;10083;51.038;7.012;2022-07-22T04:52:12;101774.16;;;19.08;100.00
19845;BME280;10083;51.038;7.012;2022-07-22T04:54:48;101780.72;;;19.02;100.00
19845;BME280;10083;51.038;7.012;2022-07-22T04:57:18;101799.84;;;19.21;100.00
19845;BME280;10083;51.038;7.012;2022-07-22T04:59:45;101792.81;;;19.15;100.00
19845;BME280;10083;51.038;7.012;2022-07-22T05:02:12;101799.09;;;19.17;100.00
19845;BME280;10083;51.038;7.012;2022-07-22T05:04:43;101797.38;;;19.15;100.00
19845;BME280;10083;51.038;7.012;2022-07-22T05:07:10;101803.31;;;19.24;100.00
19845;BME280;10083;51.038;7.012;2022-07-22T05:09:39;101800.59;;;19.24;100.00
19845;BME280;10083;51.038;7.012;2022-07-22T05:12:09;101800.59;;;19.24;100.00
19845;BME280;10083;51.038;7.012;2022-07-22T05:14:38;101812.09;;;19.31;100.00
19845;BME280;10083;51.038;7.012;2022-07-22T05:17:09;101820.03;;;19.35;100.00
19845;BME280;10083;51.038;7.012;2022-07-22T05:19:38;101816.34;;;19.36;100.00
19845;BME280;10083;51.038;7.012;2022-07-22T05:22:08;101811.75;;;19.38;100.00
19845;BME280;10083;51.038;7.012;2022-07-22T05:24:36;101809.47;;;19.28;100.00
19845;BME280;10083;51.038;7.012;2022-07-22T05:27:09;101800.94;;;19.37;100.00
19845;BME280;10083;51.038;7.012;2022-07-22T05:29:39;101802.91;;;19.33;100.00
19845;BME280;10083;51.038;7.012;2022-07-22T05:32:07;101802.72;;;19.38;100.00
19845;BME280;10083;51.038;7.012;2022-07-22T05:34:34;101795.22;;;19.45;100.00
19845;BME280;10083;51.038;7.012;2022-07-22T05:37:05;101795.50;;;19.37;100.00
19845;BME280;10083;51.038;7.012;2022-07-22T05:39:37;101800.47;;;19.49;100.00
19845;BME280;10083;51.038;7.012;2022-07-22T05:42:05;101810.16;;;19.55;100.00
19845;BME280;10083;51.038;7.012;2022-07-22T05:44:32;101809.91;;;19.61;100.00
19845;BME280;10083;51.038;7.012;2022-07-22T05:47:08;101783.63;;;19.39;100.00
19845;BME280;10083;51.038;7.012;2022-07-22T05:49:36;101779.69;;;19.26;100.00
19845;BME280;10083;51.038;7.012;2022-07-22T05:52:09;101772.88;;;19.36;100.00
19845;BME280;10083;51.038;7.012;2022-07-22T05:54:37;101773.41;;;19.24;100.00
19845;BME280;10083;51.038;7.012;2022-07-22T05:57:07;101785.53;;;19.37;100.00
19845;BME280;10083;51.038;7.012;2022-07-22T05:59:37;101788.38;;;19.34;100.00
19845;BME280;10083;51.038;7.012;2022-07-22T06:02:18;101780.75;;;19.44;100.00
19845;BME280;10083;51.038;7.012;2022-07-22T06:04:48;101802.34;;;19.47;100.00
19845;BME280;10083;51.038;7.012;2022-07-22T06:07:18;101803.78;;;19.56;100.00
19845;BME280;10083;51.038;7.012;2022-07-22T06:09:50;101802.09;;;19.53;100.00
19845;BME280;10083;51.038;7.012;2022-07-22T06:12:23;101796.88;;;19.49;100.00
19845;BME280;10083;51.038;7.012;2022-07-22T06:14:51;101799.78;;;19.44;100.00
19845;BME280;10083;51.038;7.012;2022-07-22T06:17:20;101789.19;;;19.36;100.00
19845;BME280;10083;51.038;7.012;2022-07-22T06:19:55;101794.25;;;19.46;100.00
19845;BME280;10083;51.038;7.012;2022-07-22T06:22:22;101815.06;;;19.47;100.00
19845;BME280;10083;51.038;7.012;2022-07-22T06:24:59;101805.91;;;19.49;100.00
19845;BME280;10083;51.038;7.012;2022-07-22T06:27:26;101838.72;;;19.65;100.00
19845;BME280;10083;51.038;7.012;2022-07-22T06:29:55;101813.72;;;19.57;100.00
19845;BME280;10083;51.038;7.012;2022-07-22T06:32:25;101823.28;;;19.65;100.00
19845;BME280;10083;51.038;7.012;2022-07-22T06:35:03;101829.13;;;19.76;100.00
19845;BME280;10083;51.038;7.012;2022-07-22T06:37:31;101817.50;;;19.53;100.00
19845;BME280;10083;51.038;7.012;2022-07-22T06:39:58;101839.66;;;19.64;100.00
19845;BME280;10083;51.038;7.012;2022-07-22T06:42:52;101809.34;;;19.73;100.00
19845;BME280;10083;51.038;7.012;2022-07-22T06:45:42;101796.16;;;19.64;100.00
19845;BME280;10083;51.038;7.012;2022-07-22T06:48:20;101813.69;;;19.77;100.00
19845;BME280;10083;51.038;7.012;2022-07-22T06:50:51;101809.16;;;19.57;100.00
19845;BME280;10083;51.038;7.012;2022-07-22T06:53:18;101834.50;;;19.78;100.00
19845;BME280;10083;51.038;7.012;2022-07-22T06:55:47;101846.06;;;19.83;100.00
19845;BME280;10083;51.038;7.012;2022-07-22T06:58:14;101862.88;;;19.93;100.00
19845;BME280;10083;51.038;7.012;2022-07-22T07:00:51;101857.34;;;19.94;100.00
19845;BME280;10083;51.038;7.012;2022-07-22T07:03:48;101853.41;;;20.01;100.00
19845;BME280;10083;51.038;7.012;2022-07-22T07:06:17;101896.84;;;20.23;100.00
19845;BME280;10083;51.038;7.012;2022-07-22T07:09:02;101892.41;;;20.41;100.00
19845;BME280;10083;51.038;7.012;2022-07-22T07:11:44;101874.09;;;20.24;100.00
19845;BME280;10083;51.038;7.012;2022-07-22T07:14:17;101885.34;;;20.16;100.00
19845;BME280;10083;51.038;7.012;2022-07-22T07:16:44;101919.50;;;20.44;100.00
19845;BME280;10083;51.038;7.012;2022-07-22T07:19:21;101888.94;;;20.17;100.00
19845;BME280;10083;51.038;7.012;2022-07-22T07:21:48;101930.88;;;20.33;100.00
19845;BME280;10083;51.038;7.012;2022-07-22T07:24:15;101931.94;;;20.29;100.00
19845;BME280;10083;51.038;7.012;2022-07-22T07:26:42;101946.03;;;20.39;100.00
19845;BME280;10083;51.038;7.012;2022-07-22T07:29:10;101949.34;;;20.45;100.00
19845;BME280;10083;51.038;7.012;2022-07-22T07:31:40;101961.13;;;20.66;100.00
19845;BME280;10083;51.038;7.012;2022-07-22T07:34:16;101953.97;;;20.63;100.00
19845;BME280;10083;51.038;7.012;2022-07-22T07:36:47;101945.94;;;20.60;100.00
19845;BME280;10083;51.038;7.012;2022-07-22T07:39:15;101961.03;;;20.67;100.00
19845;BME280;10083;51.038;7.012;2022-07-22T07:41:44;101967.72;;;20.60;100.00
19845;BME280;10083;51.038;7.012;2022-07-22T07:44:14;101988.53;;;20.82;100.00
19845;BME280;10083;51.038;7.012;2022-07-22T07:46:42;101985.28;;;20.73;100.00
19845;BME280;10083;51.038;7.012;2022-07-22T07:49:09;101976.16;;;20.54;100.00
19845;BME280;10083;51.038;7.012;2022-07-22T07:51:51;101947.63;;;20.44;100.00
19845;BME280;10083;51.038;7.012;2022-07-22T07:54:19;101971.69;;;20.53;100.00
19845;BME280;10083;51.038;7.012;2022-07-22T07:56:50;101975.63;;;20.46;100.00
19845;BME280;10083;51.038;7.012;2022-07-22T07:59:18;102009.59;;;20.58;100.00
19845;BME280;10083;51.038;7.012;2022-07-22T08:01:46;102033.88;;;20.83;100.00
19845;BME280;10083;51.038;7.012;2022-07-22T08:04:13;102041.84;;;20.87;100.00
19845;BME280;10083;51.038;7.012;2022-07-22T08:06:41;102049.38;;;21.01;100.00
19845;BME280;10083;51.038;7.012;2022-07-22T08:09:10;102021.38;;;20.97;100.00
19845;BME280;10083;51.038;7.012;2022-07-22T08:11:41;102038.91;;;20.92;100.00
19845;BME280;10083;51.038;7.012;2022-07-22T08:14:26;102067.03;;;21.12;100.00
19845;BME280;10083;51.038;7.012;2022-07-22T08:17:16;102031.16;;;20.83;100.00
19845;BME280;10083;51.038;7.012;2022-07-22T08:19:46;102070.84;;;20.88;100.00
19845;BME280;10083;51.038;7.012;2022-07-22T08:22:13;102085.75;;;21.00;100.00
19845;BME280;10083;51.038;7.012;2022-07-22T08:24:45;102081.44;;;20.94;100.00
19845;BME280;10083;51.038;7.012;2022-07-22T08:27:15;102086.63;;;21.00;100.00
19845;BME280;10083;51.038;7.012;2022-07-22T08:29:51;102086.69;;;20.99;100.00
19845;BME280;10083;51.038;7.012;2022-07-22T08:32:18;102095.91;;;20.96;100.00
19845;BME280;10083;51.038;7.012;2022-07-22T08:34:45;102063.00;;;20.60;100.00
19845;BME280;10083;51.038;7.012;2022-07-22T08:37:12;102090.22;;;20.81;100.00
19845;BME280;10083;51.038;7.012;2022-07-22T08:39:45;102103.72;;;21.04;100.00
19845;BME280;10083;51.038;7.012;2022-07-22T08:42:12;102089.09;;;20.86;100.00
19845;BME280;10083;51.038;7.012;2022-07-22T08:44:40;102135.25;;;21.09;100.00
19845;BME280;10083;51.038;7.012;2022-07-22T08:47:07;102142.53;;;21.09;100.00
19845;BME280;10083;51.038;7.012;2022-07-22T08:49:50;102109.66;;;20.73;100.00
19845;BME280;10083;51.038;7.012;2022-07-22T08:52:37;102125.63;;;20.81;100.00
19845;BME280;10083;51.038;7.012;2022-07-22T08:55:09;102127.75;;;20.74;100.00
19845;BME280;10083;51.038;7.012;2022-07-22T08:57:36;102122.50;;;20.69;100.00
19845;BME280;10083;51.038;7.012;2022-07-22T09:00:23;102118.75;;;20.52;100.00
19845;BME280;10083;51.038;7.012;2022-07-22T09:02:50;102166.41;;;20.62;100.00
19845;BME280;10083;51.038;7.012;2022-07-22T09:05:37;102139.41;;;20.77;100.00
19845;BME280;10083;51.038;7.012;2022-07-22T09:08:05;102164.31;;;20.89;100.00
19845;BME280;10083;51.038;7.012;2022-07-22T09:10:54;102134.50;;;20.86;100.00
19845;BME280;10083;51.038;7.012;2022-07-22T09:13:59;102145.19;;;20.90;100.00
19845;BME280;10083;51.038;7.012;2022-07-22T09:16:45;102139.09;;;20.63;100.00
19845;BME280;10083;51.038;7.012;2022-07-22T09:19:35;102166.88;;;20.71;100.00
19845;BME280;10083;51.038;7.012;2022-07-22T09:22:37;102202.19;;;20.95;100.00
19845;BME280;10083;51.038;7.012;2022-07-22T09:25:19;102217.41;;;21.00;100.00
19845;BME280;10083;51.038;7.012;2022-07-22T09:28:15;102188.63;;;20.93;100.00
19845;BME280;10083;51.038;7.012;2022-07-22T09:31:01;102213.25;;;21.12;100.00
19845;BME280;10083;51.038;7.012;2022-07-22T09:33:33;102230.31;;;21.17;100.00
19845;BME280;10083;51.038;7.012;2022-07-22T09:36:19;102221.25;;;21.37;100.00
19845;BME280;10083;51.038;7.012;2022-07-22T09:38:47;102224.31;;;21.29;100.00
19845;BME280;10083;51.038;7.012;2022-07-22T09:41:31;102191.56;;;21.31;100.00
19845;BME280;10083;51.038;7.012;2022-07-22T09:44:31;102208.38;;;21.79;100.00
19845;BME280;10083;51.038;7.012;2022-07-22T09:47:05;102187.53;;;22.16;100.00
19845;BME280;10083;51.038;7.012;2022-07-22T09:49:49;102167.63;;;22.49;100.00
19845;BME280;10083;51.038;7.012;2022-07-22T09:52:52;102131.44;;;22.63;100.00
19845;BME280;10083;51.038;7.012;2022-07-22T09:55:26;102068.13;;;22.55;100.00
19845;BME280;10083;51.038;7.012;2022-07-22T09:57:59;102079.41;;;22.83;100.00
19845;BME280;10083;51.038;7.012;2022-07-22T10:00:28;102007.06;;;22.90;100.00
19845;BME280;10083;51.038;7.012;2022-07-22T10:03:01;101977.00;;;22.90;100.00
19845;BME280;10083;51.038;7.012;2022-07-22T10:05:35;101976.88;;;23.25;100.00
19845;BME280;10083;51.038;7.012;2022-07-22T10:08:05;101935.53;;;23.31;100.00
19845;BME280;10083;51.038;7.012;2022-07-22T10:10:34;101880.41;;;23.23;100.00
19845;BME280;10083;51.038;7.012;2022-07-22T10:13:09;101884.91;;;23.55;100.00
19845;BME280;10083;51.038;7.012;2022-07-22T10:15:39;101826.81;;;23.66;100.00
19845;BME280;10083;51.038;7.012;2022-07-22T10:18:13;101784.09;;;23.49;100.00
19845;BME280;10083;51.038;7.012;2022-07-22T10:20:44;101829.28;;;23.70;100.00
19845;BME280;10083;51.038;7.012;2022-07-22T10:23:13;101770.72;;;23.43;100.00
19845;BME280;10083;51.038;7.012;2022-07-22T10:25:52;101772.16;;;23.05;100.00
19845;BME280;10083;51.038;7.012;2022-07-22T10:28:23;101804.78;;;22.76;100.00
19845;BME280;10083;51.038;7.012;2022-07-22T10:30:53;101818.88;;;23.00;100.00
19845;BME280;10083;51.038;7.012;2022-07-22T10:33:29;101850.06;;;22.80;100.00
19845;BME280;10083;51.038;7.012;2022-07-22T10:36:01;101914.16;;;23.06;100.00
19845;BME280;10083;51.038;7.012;2022-07-22T10:38:31;101872.06;;;23.10;100.00
19845;BME280;10083;51.038;7.012;2022-07-22T10:41:00;101836.50;;;23.26;100.00
19845;BME280;10083;51.038;7.012;2022-07-22T10:43:29;101786.31;;;23.11;100.00
19845;BME280;10083;51.038;7.012;2022-07-22T10:46:04;101843.00;;;23.39;100.00
19845;BME280;10083;51.038;7.012;2022-07-22T10:48:47;101827.53;;;22.92;100.00
19845;BME280;10083;51.038;7.012;2022-07-22T10:51:15;101818.97;;;22.98;100.00
19845;BME280;10083;51.038;7.012;2022-07-22T10:53:55;101812.28;;;22.88;100.00
19845;BME280;10083;51.038;7.012;2022-07-22T10:56:25;101835.63;;;23.10;100.00
19845;BME280;10083;51.038;7.012;2022-07-22T10:58:59;101811.09;;;22.61;100.00
19845;BME280;10083;51.038;7.012;2022-07-22T11:01:31;101879.09;;;22.83;100.00
19845;BME280;10083;51.038;7.012;2022-07-22T11:04:12;101824.63;;;22.63;100.00
19845;BME280;10083;51.038;7.012;2022-07-22T11:06:40;101869.56;;;22.90;100.00
19845;BME280;10083;51.038;7.012;2022-07-22T11:09:19;101881.28;;;22.59;100.00
19845;BME280;10083;51.038;7.012;2022-07-22T11:11:50;101929.22;;;22.82;100.00
19845;BME280;10083;51.038;7.012;2022-07-22T11:14:22;101939.13;;;23.00;100.00
19845;BME280;10083;51.038;7.012;2022-07-22T11:16:54;101863.66;;;22.97;100.00
19845;BME280;10083;51.038;7.012;2022-07-22T11:19:30;101873.91;;;23.10;100.00
19845;BME280;10083;51.038;7.012;2022-07-22T11:21:58;101885.97;;;23.21;100.00
19845;BME280;10083;51.038;7.012;2022-07-22T11:24:30;101816.84;;;23.04;100.00
19845;BME280;10083;51.038;7.012;2022-07-22T11:26:59;101809.50;;;23.35;100.00
19845;BME280;10083;51.038;7.012;2022-07-22T11:29:29;101782.13;;;23.06;100.00
19845;BME280;10083;51.038;7.012;2022-07-22T11:31:59;101779.44;;;23.20;100.00
19845;BME280;10083;51.038;7.012;2022-07-22T11:34:27;101795.03;;;23.49;100.00
19845;BME280;10083;51.038;7.012;2022-07-22T11:36:55;101782.53;;;23.59;100.00
19845;BME280;10083;51.038;7.012;2022-07-22T11:39:25;101770.94;;;23.70;100.00
19845;BME280;10083;51.038;7.012;2022-07-22T11:41:54;101774.84;;;25.59;100.00
19845;BME280;10083;51.038;7.012;2022-07-22T11:44:34;101526.69;;;24.88;100.00
19845;BME280;10083;51.038;7.012;2022-07-22T11:47:04;101502.94;;;24.49;100.00
19845;BME280;10083;51.038;7.012;2022-07-22T11:49:41;101524.22;;;24.70;100.00
19845;BME280;10083;51.038;7.012;2022-07-22T11:52:10;101542.38;;;24.59;100.00
19845;BME280;10083;51.038;7.012;2022-07-22T11:54:40;101506.34;;;24.52;100.00
19845;BME280;10083;51.038;7.012;2022-07-22T11:57:08;101456.13;;;24.39;100.00
19845;BME280;10083;51.038;7.012;2022-07-22T11:59:38;101485.31;;;24.78;100.00
19845;BME280;10083;51.038;7.012;2022-07-22T12:02:07;101334.84;;;24.62;100.00
19845;BME280;10083;51.038;7.012;2022-07-22T12:04:38;101390.50;;;25.01;100.00
19845;BME280;10083;51.038;7.012;2022-07-22T12:07:05;101317.81;;;24.83;100.00
19845;BME280;10083;51.038;7.012;2022-07-22T12:09:39;101244.88;;;24.56;100.00
19845;BME280;10083;51.038;7.012;2022-07-22T12:12:10;101277.06;;;24.78;100.00
19845;BME280;10083;51.038;7.012;2022-07-22T12:14:45;101209.41;;;24.78;100.00
19845;BME280;10083;51.038;7.012;2022-07-22T12:17:14;101254.56;;;24.37;100.00
19845;BME280;10083;51.038;7.012;2022-07-22T12:19:47;101293.00;;;23.97;100.00
19845;BME280;10083;51.038;7.012;2022-07-22T12:22:19;101372.44;;;24.35;100.00
19845;BME280;10083;51.038;7.012;2022-07-22T12:24:59;101380.22;;;24.92;100.00
19845;BME280;10083;51.038;7.012;2022-07-22T12:27:27;101347.38;;;25.63;100.00
19845;BME280;10083;51.038;7.012;2022-07-22T12:29:56;101186.72;;;25.24;100.00
19845;BME280;10083;51.038;7.012;2022-07-22T12:32:28;101088.72;;;25.04;100.00
19845;BME280;10083;51.038;7.012;2022-07-22T12:35:03;101116.66;;;25.77;100.00
19845;BME280;10083;51.038;7.012;2022-07-22T12:37:33;100969.38;;;26.41;100.00
19845;BME280;10083;51.038;7.012;2022-07-22T12:40:09;100871.03;;;25.72;100.00
19845;BME280;10083;51.038;7.012;2022-07-22T12:42:38;100988.41;;;25.46;100.00
19845;BME280;10083;51.038;7.012;2022-07-22T12:45:09;100972.25;;;25.54;100.00
19845;BME280;10083;51.038;7.012;2022-07-22T12:47:49;100953.41;;;25.27;100.00
19845;BME280;10083;51.038;7.012;2022-07-22T12:50:24;101022.31;;;26.00;100.00
19845;BME280;10083;51.038;7.012;2022-07-22T12:52:59;100923.59;;;27.14;100.00
19845;BME280;10083;51.038;7.012;2022-07-22T12:55:29;100735.16;;;27.77;100.00
19845;BME280;10083;51.038;7.012;2022-07-22T12:57:56;100492.28;;;27.83;100.00
19845;BME280;10083;51.038;7.012;2022-07-22T13:00:26;100359.22;;;25.67;100.00
19845;BME280;10083;51.038;7.012;2022-07-22T13:03:11;100484.44;;;26.37;100.00
19845;BME280;10083;51.038;7.012;2022-07-22T13:05:39;100408.53;;;26.46;100.00